Time,TemperatureF,DewpointF,PressureIn,WindDirection,WindDirectionDegrees,WindSpeedMPH,WindSpeedGustMPH,Humidity,HourlyPrecipIn,Conditions,Clouds,dailyrainin,SoftwareType,DateUTC
2013-07-07 00:00:00,71.4,68.0,30.18,ESE,112,0.0,0.0,89,0.15,,CLR,0.50,VWS V12.08,2013-07-07 04:00:00,
2013-07-07 00:01:00,71.4,68.0,30.18,ESE,112,0.0,0.0,89,0.15,,CLR,0.50,VWS V12.08,2013-07-07 04:01:00,
2013-07-07 00:02:00,71.4,68.0,30.18,ESE,112,0.0,0.0,89,0.15,,CLR,0.50,VWS V12.08,2013-07-07 04:02:00,
2013-07-07 00:07:00,71.2,67.8,30.18,ESE,112,0.0,0.0,89,0.15,,CLR,0.50,VWS V12.08,2013-07-07 04:07:00,
2013-07-07 00:12:00,71.4,68.0,30.18,NE,45,0.0,0.0,89,0.15,,CLR,0.50,VWS V12.08,2013-07-07 04:12:00,
2013-07-07 00:17:00,71.2,67.8,30.18,ENE,68,0.0,0.0,89,0.19,,CLR,0.54,VWS V12.08,2013-07-07 04:17:00,
2013-07-07 00:22:00,71.2,67.8,30.18,ESE,112,0.0,0.0,89,0.19,,CLR,0.54,VWS V12.08,2013-07-07 04:22:00,
2013-07-07 00:27:00,71.2,67.8,30.18,East,90,0.0,0.0,89,0.22,,CLR,0.58,VWS V12.08,2013-07-07 04:27:00,
2013-07-07 00:32:00,71.2,67.8,30.18,East,90,0.0,0.0,89,0.22,,CLR,0.58,VWS V12.08,2013-07-07 04:32:00,
2013-07-07 00:37:00,71.2,67.8,30.18,NE,45,0.0,0.0,89,0.22,,CLR,0.58,VWS V12.08,2013-07-07 04:37:00,
2013-07-07 00:42:00,71.4,68.0,30.18,NE,45,0.0,0.0,89,0.22,,CLR,0.58,VWS V12.08,2013-07-07 04:42:00,
2013-07-07 00:47:00,71.2,67.8,30.18,NE,45,0.0,0.0,89,0.22,,CLR,0.58,VWS V12.08,2013-07-07 04:47:00,
2013-07-07 00:52:00,71.2,67.8,30.18,ENE,68,0.0,0.0,89,0.19,,CLR,0.58,VWS V12.08,2013-07-07 04:52:00,
2013-07-07 00:57:00,71.2,67.8,30.18,ENE,68,0.0,0.0,89,0.09,,CLR,0.58,VWS V12.08,2013-07-07 04:57:00,
2013-07-07 01:02:00,71.2,67.8,30.18,ENE,68,0.0,0.0,89,0.09,,CLR,0.58,VWS V12.08,2013-07-07 05:02:00,
2013-07-07 01:07:00,71.2,67.8,30.18,ENE,68,0.0,0.0,89,0.09,,CLR,0.58,VWS V12.08,2013-07-07 05:07:00,
2013-07-07 01:12:00,71.2,67.8,30.17,ENE,68,0.0,0.0,89,0.04,,CLR,0.58,VWS V12.08,2013-07-07 05:12:00,
2013-07-07 01:17:00,71.2,67.8,30.17,ENE,68,0.0,0.0,89,0.04,,CLR,0.58,VWS V12.08,2013-07-07 05:17:00,
2013-07-07 01:22:00,71.2,67.8,30.18,ENE,68,0.0,0.0,89,0.04,,CLR,0.58,VWS V12.08,2013-07-07 05:22:00,
2013-07-07 01:27:00,71.2,67.8,30.17,ENE,68,0.0,0.0,89,0.04,,CLR,0.58,VWS V12.08,2013-07-07 05:27:00,
2013-07-07 01:32:00,71.2,67.8,30.17,ENE,68,0.0,0.0,89,0.00,,CLR,0.58,VWS V12.08,2013-07-07 05:32:00,
2013-07-07 01:37:00,71.1,67.7,30.17,ENE,68,0.0,0.0,89,0.00,,CLR,0.58,VWS V12.08,2013-07-07 05:37:00,
2013-07-07 01:42:00,70.9,67.5,30.17,ENE,68,0.0,0.0,89,0.00,,CLR,0.58,VWS V12.08,2013-07-07 05:42:00,
2013-07-07 01:47:00,70.9,67.5,30.17,NW,315,0.0,0.0,89,0.00,,CLR,0.58,VWS V12.08,2013-07-07 05:47:00,
2013-07-07 01:52:00,70.9,67.5,30.17,NNW,338,0.0,0.0,89,0.00,,CLR,0.58,VWS V12.08,2013-07-07 05:52:00,
2013-07-07 01:57:00,70.7,67.3,30.17,NNW,338,0.0,0.0,89,0.00,,CLR,0.58,VWS V12.08,2013-07-07 05:57:00,
2013-07-07 02:02:00,70.7,67.3,30.17,NE,45,0.0,0.0,89,0.00,,CLR,0.58,VWS V12.08,2013-07-07 06:02:00,
2013-07-07 02:07:00,70.7,67.3,30.17,ENE,68,0.0,0.0,89,0.00,,CLR,0.58,VWS V12.08,2013-07-07 06:07:00,
2013-07-07 02:12:00,70.7,67.3,30.16,ENE,68,0.0,0.0,89,0.00,,CLR,0.58,VWS V12.08,2013-07-07 06:12:00,
2013-07-07 02:17:00,70.5,67.1,30.16,ENE,68,0.0,0.0,89,0.00,,CLR,0.58,VWS V12.08,2013-07-07 06:17:00,
2013-07-07 02:22:00,70.5,67.1,30.16,ENE,68,0.0,0.0,89,0.00,,CLR,0.58,VWS V12.08,2013-07-07 06:22:00,
2013-07-07 02:27:00,70.5,67.1,30.16,ENE,68,0.0,0.0,89,0.00,,CLR,0.58,VWS V12.08,2013-07-07 06:27:00,
2013-07-07 02:32:00,70.5,67.1,30.16,NE,45,0.0,0.0,89,0.00,,CLR,0.58,VWS V12.08,2013-07-07 06:32:00,
2013-07-07 02:37:00,70.5,67.4,30.15,NNE,22,0.0,0.0,90,0.00,,CLR,0.58,VWS V12.08,2013-07-07 06:37:00,
2013-07-07 02:42:00,70.5,67.4,30.15,ENE,68,0.0,0.0,90,0.00,,CLR,0.58,VWS V12.08,2013-07-07 06:42:00,
2013-07-07 02:47:00,70.5,67.4,30.15,ENE,68,0.0,0.0,90,0.00,,CLR,0.58,VWS V12.08,2013-07-07 06:47:00,
2013-07-07 02:52:00,70.5,67.4,30.15,ENE,68,0.0,0.0,90,0.00,,CLR,0.58,VWS V12.08,2013-07-07 06:52:00,
2013-07-07 02:57:00,70.5,67.4,30.15,ENE,68,0.0,0.0,90,0.00,,CLR,0.58,VWS V12.08,2013-07-07 06:57:00,
2013-07-07 03:02:00,70.5,67.4,30.15,ENE,68,0.0,0.0,90,0.00,,CLR,0.58,VWS V12.08,2013-07-07 07:02:00,
2013-07-07 03:07:00,70.5,67.4,30.15,NNW,338,0.0,0.0,90,0.00,,CLR,0.58,VWS V12.08,2013-07-07 07:07:00,
2013-07-07 03:12:00,70.5,67.4,30.15,NNW,338,0.0,0.0,90,0.00,,CLR,0.58,VWS V12.08,2013-07-07 07:12:00,
2013-07-07 03:17:00,70.5,67.4,30.15,NNW,338,0.0,0.0,90,0.00,,CLR,0.58,VWS V12.08,2013-07-07 07:17:00,
2013-07-07 03:22:00,70.5,67.4,30.15,NW,315,0.0,0.0,90,0.00,,CLR,0.58,VWS V12.08,2013-07-07 07:22:00,
2013-07-07 03:27:00,70.7,67.6,30.14,NNW,338,0.0,0.0,90,0.00,,CLR,0.58,VWS V12.08,2013-07-07 07:27:00,
2013-07-07 03:32:00,70.7,67.6,30.15,NNW,338,0.0,0.0,90,0.00,,CLR,0.58,VWS V12.08,2013-07-07 07:32:00,
2013-07-07 03:37:00,70.7,67.6,30.15,NNW,338,0.0,0.0,90,0.00,,CLR,0.58,VWS V12.08,2013-07-07 07:37:00,
2013-07-07 03:42:00,70.7,67.6,30.14,NNW,338,0.0,0.0,90,0.02,,CLR,0.61,VWS V12.08,2013-07-07 07:42:00,
2013-07-07 03:47:00,70.7,67.6,30.14,NNW,338,0.0,0.0,90,0.02,,CLR,0.61,VWS V12.08,2013-07-07 07:47:00,
2013-07-07 03:52:00,70.7,67.6,30.15,NNW,338,0.0,0.0,90,0.02,,CLR,0.61,VWS V12.08,2013-07-07 07:52:00,
2013-07-07 03:57:00,70.7,67.6,30.15,NNW,338,0.0,0.0,90,0.02,,CLR,0.61,VWS V12.08,2013-07-07 07:57:00,
2013-07-07 04:02:00,70.7,67.6,30.14,NNW,338,0.0,0.0,90,0.02,,CLR,0.61,VWS V12.08,2013-07-07 08:02:00,
2013-07-07 04:07:00,70.7,67.6,30.15,NE,45,0.0,0.0,90,0.02,,CLR,0.61,VWS V12.08,2013-07-07 08:07:00,
2013-07-07 04:12:00,70.7,67.6,30.15,ENE,68,0.0,0.0,90,0.02,,CLR,0.61,VWS V12.08,2013-07-07 08:12:00,
2013-07-07 04:17:00,70.5,67.4,30.15,ENE,68,0.0,0.0,90,0.02,,CLR,0.61,VWS V12.08,2013-07-07 08:17:00,
2013-07-07 04:22:00,70.7,67.6,30.15,ENE,68,0.0,0.0,90,0.02,,CLR,0.61,VWS V12.08,2013-07-07 08:22:00,
2013-07-07 04:27:00,70.7,67.6,30.14,ENE,68,0.0,0.0,90,0.02,,CLR,0.61,VWS V12.08,2013-07-07 08:27:00,
2013-07-07 04:32:00,70.7,67.6,30.15,ENE,68,0.0,0.0,90,0.02,,CLR,0.61,VWS V12.08,2013-07-07 08:32:00,
2013-07-07 04:37:00,70.7,67.6,30.15,ENE,68,0.0,0.0,90,0.02,,CLR,0.61,VWS V12.08,2013-07-07 08:37:00,
2013-07-07 04:42:00,70.5,67.4,30.14,ENE,68,0.0,0.0,90,0.00,,CLR,0.61,VWS V12.08,2013-07-07 08:42:00,
2013-07-07 04:47:00,70.5,67.4,30.15,ENE,68,0.0,0.0,90,0.00,,CLR,0.61,VWS V12.08,2013-07-07 08:47:00,
2013-07-07 04:52:00,70.5,67.4,30.14,ENE,68,0.0,0.0,90,0.00,,CLR,0.61,VWS V12.08,2013-07-07 08:52:00,
2013-07-07 04:57:00,70.5,67.4,30.14,ENE,68,0.0,0.0,90,0.00,,CLR,0.61,VWS V12.08,2013-07-07 08:57:00,
2013-07-07 05:02:00,70.5,67.4,30.14,ENE,68,0.0,0.0,90,0.00,,CLR,0.61,VWS V12.08,2013-07-07 09:02:00,
2013-07-07 05:07:00,70.5,67.4,30.15,ENE,68,0.0,0.0,90,0.00,,CLR,0.61,VWS V12.08,2013-07-07 09:07:00,
2013-07-07 05:12:00,70.3,67.3,30.14,ENE,68,0.0,0.0,90,0.00,,CLR,0.61,VWS V12.08,2013-07-07 09:12:00,
2013-07-07 05:17:00,70.3,67.3,30.15,ENE,68,0.0,0.0,90,0.00,,CLR,0.61,VWS V12.08,2013-07-07 09:17:00,
2013-07-07 05:22:00,70.3,67.3,30.15,ENE,68,0.0,0.0,90,0.00,,CLR,0.61,VWS V12.08,2013-07-07 09:22:00,
2013-07-07 05:27:00,70.3,67.3,30.15,ENE,68,0.0,0.0,90,0.00,,CLR,0.61,VWS V12.08,2013-07-07 09:27:00,
2013-07-07 05:33:00,70.3,67.3,30.14,ENE,68,0.0,0.0,90,0.00,,CLR,0.61,VWS V12.08,2013-07-07 09:33:00,
2013-07-07 05:38:00,70.2,67.1,30.15,ENE,68,0.0,0.0,90,0.00,,CLR,0.61,VWS V12.08,2013-07-07 09:38:00,
2013-07-07 05:43:00,70.2,67.1,30.14,ENE,68,0.0,0.0,90,0.00,,CLR,0.61,VWS V12.08,2013-07-07 09:43:00,
2013-07-07 05:48:00,70.2,67.1,30.15,ENE,68,0.0,0.0,90,0.00,,CLR,0.61,VWS V12.08,2013-07-07 09:48:00,
2013-07-07 05:53:00,70.2,67.1,30.14,ENE,68,0.0,0.0,90,0.00,,CLR,0.61,VWS V12.08,2013-07-07 09:53:00,
2013-07-07 05:58:00,70.2,67.1,30.15,ENE,68,0.0,0.0,90,0.00,,CLR,0.61,VWS V12.08,2013-07-07 09:58:00,
2013-07-07 06:03:00,70.2,67.1,30.15,ENE,68,0.0,0.0,90,0.00,,CLR,0.61,VWS V12.08,2013-07-07 10:03:00,
2013-07-07 06:08:00,70.2,67.1,30.15,ENE,68,0.0,0.0,90,0.00,,CLR,0.61,VWS V12.08,2013-07-07 10:08:00,
2013-07-07 06:13:00,70.2,67.1,30.14,ENE,68,0.0,0.0,90,0.00,,CLR,0.61,VWS V12.08,2013-07-07 10:13:00,
2013-07-07 06:18:00,70.2,67.1,30.14,ENE,68,0.0,0.0,90,0.00,,CLR,0.61,VWS V12.08,2013-07-07 10:18:00,
2013-07-07 06:23:00,70.2,67.1,30.14,ENE,68,0.0,0.0,90,0.00,,CLR,0.61,VWS V12.08,2013-07-07 10:23:00,
2013-07-07 06:28:00,70.2,67.1,30.14,ENE,68,0.0,0.0,90,0.00,,CLR,0.61,VWS V12.08,2013-07-07 10:28:00,
2013-07-07 06:33:00,70.2,67.1,30.15,ENE,68,0.0,0.0,90,0.00,,CLR,0.61,VWS V12.08,2013-07-07 10:33:00,
2013-07-07 06:38:00,70.2,67.1,30.15,ENE,68,0.0,0.0,90,0.00,,CLR,0.61,VWS V12.08,2013-07-07 10:38:00,
2013-07-07 06:43:00,70.3,67.3,30.14,ENE,68,0.0,0.0,90,0.00,,CLR,0.61,VWS V12.08,2013-07-07 10:43:00,
2013-07-07 06:48:00,70.3,67.3,30.14,ENE,68,0.0,0.0,90,0.00,,CLR,0.61,VWS V12.08,2013-07-07 10:48:00,
2013-07-07 06:53:00,70.2,67.1,30.14,ENE,68,0.0,0.0,90,0.00,,CLR,0.61,VWS V12.08,2013-07-07 10:53:00,
2013-07-07 06:58:00,70.3,67.3,30.14,ENE,68,0.0,0.0,90,0.00,,CLR,0.61,VWS V12.08,2013-07-07 10:58:00,
2013-07-07 07:03:00,70.3,67.3,30.14,ENE,68,0.0,0.0,90,0.00,,CLR,0.58,VWS V12.08,2013-07-07 11:03:00,
2013-07-07 07:08:00,70.3,67.3,30.14,ENE,68,0.0,0.0,90,0.00,,CLR,0.58,VWS V12.08,2013-07-07 11:08:00,
2013-07-07 07:13:00,70.3,67.3,30.14,ENE,68,0.0,0.0,90,0.00,,CLR,0.58,VWS V12.08,2013-07-07 11:13:00,
2013-07-07 07:18:00,70.3,67.3,30.14,ENE,68,0.0,0.0,90,0.00,,CLR,0.58,VWS V12.08,2013-07-07 11:18:00,
2013-07-07 07:23:00,70.5,67.4,30.14,ENE,68,0.0,0.0,90,0.00,,CLR,0.58,VWS V12.08,2013-07-07 11:23:00,
2013-07-07 07:28:00,70.5,67.4,30.14,ENE,68,0.0,0.0,90,0.00,,CLR,0.58,VWS V12.08,2013-07-07 11:28:00,
2013-07-07 07:33:00,70.7,67.6,30.15,ENE,68,0.0,0.0,90,0.00,,CLR,0.58,VWS V12.08,2013-07-07 11:33:00,
2013-07-07 07:38:00,70.7,67.6,30.15,ENE,68,0.0,0.0,90,0.00,,CLR,0.58,VWS V12.08,2013-07-07 11:38:00,
2013-07-07 07:43:00,70.9,67.8,30.15,NE,45,0.0,0.0,90,0.00,,CLR,0.58,VWS V12.08,2013-07-07 11:43:00,
2013-07-07 07:48:00,70.9,67.8,30.15,NE,45,0.0,0.0,90,0.00,,CLR,0.58,VWS V12.08,2013-07-07 11:48:00,
2013-07-07 07:53:00,71.2,68.2,30.15,ENE,68,0.0,0.0,90,0.00,,CLR,0.58,VWS V12.08,2013-07-07 11:53:00,
2013-07-07 07:58:00,71.2,68.2,30.16,ENE,68,0.0,0.0,90,0.00,,CLR,0.58,VWS V12.08,2013-07-07 11:58:00,
2013-07-07 08:03:00,71.2,68.2,30.16,ENE,68,0.0,0.0,90,0.00,,CLR,0.58,VWS V12.08,2013-07-07 12:03:00,
2013-07-07 08:08:00,71.2,68.2,30.16,ENE,68,0.0,0.0,90,0.00,,CLR,0.58,VWS V12.08,2013-07-07 12:08:00,
2013-07-07 08:13:00,71.4,68.3,30.16,ENE,68,0.0,0.0,90,0.00,,CLR,0.58,VWS V12.08,2013-07-07 12:13:00,
2013-07-07 08:18:00,71.8,69.0,30.16,ENE,68,0.0,0.0,91,0.00,,CLR,0.58,VWS V12.08,2013-07-07 12:18:00,
2013-07-07 08:23:00,71.8,69.0,30.15,ENE,68,0.0,0.0,91,0.00,,CLR,0.58,VWS V12.08,2013-07-07 12:23:00,
2013-07-07 08:28:00,72.0,69.2,30.15,ENE,68,0.0,0.0,91,0.00,,CLR,0.58,VWS V12.08,2013-07-07 12:28:00,
2013-07-07 08:33:00,72.1,69.4,30.16,ENE,68,0.0,0.0,91,0.00,,CLR,0.58,VWS V12.08,2013-07-07 12:33:00,
2013-07-07 08:38:00,72.1,69.4,30.16,ENE,68,0.0,0.0,91,0.00,,CLR,0.58,VWS V12.08,2013-07-07 12:38:00,
2013-07-07 08:43:00,72.3,69.6,30.17,ENE,68,0.0,0.0,91,0.00,,CLR,0.58,VWS V12.08,2013-07-07 12:43:00,
2013-07-07 08:48:00,72.3,69.6,30.17,ENE,68,0.0,0.0,91,0.00,,CLR,0.58,VWS V12.08,2013-07-07 12:48:00,
2013-07-07 08:53:00,72.3,69.6,30.17,ENE,68,0.0,0.0,91,0.00,,CLR,0.58,VWS V12.08,2013-07-07 12:53:00,
2013-07-07 08:58:00,72.3,69.6,30.17,ENE,68,0.0,0.0,91,0.00,,CLR,0.58,VWS V12.08,2013-07-07 12:58:00,
2013-07-07 09:03:00,72.5,69.7,30.17,ENE,68,0.0,0.0,91,0.00,,CLR,0.58,VWS V12.08,2013-07-07 13:03:00,
2013-07-07 09:08:00,72.7,69.9,30.17,ENE,68,0.0,0.0,91,0.00,,CLR,0.58,VWS V12.08,2013-07-07 13:08:00,
2013-07-07 09:13:00,72.7,69.9,30.17,East,90,0.0,0.0,91,0.00,,CLR,0.58,VWS V12.08,2013-07-07 13:13:00,
2013-07-07 09:18:00,72.7,69.9,30.17,WNW,292,0.0,0.0,91,0.00,,CLR,0.58,VWS V12.08,2013-07-07 13:18:00,
2013-07-07 09:23:00,72.9,70.1,30.17,WNW,292,0.0,0.0,91,0.00,,CLR,0.58,VWS V12.08,2013-07-07 13:23:00,
2013-07-07 09:28:00,73.0,70.3,30.17,WNW,292,0.0,0.0,91,0.00,,CLR,0.58,VWS V12.08,2013-07-07 13:28:00,
2013-07-07 09:33:00,73.2,70.4,30.17,WNW,292,0.0,0.0,91,0.00,,CLR,0.58,VWS V12.08,2013-07-07 13:33:00,
2013-07-07 09:38:00,73.2,70.4,30.17,WNW,292,0.0,0.0,91,0.00,,CLR,0.58,VWS V12.08,2013-07-07 13:38:00,
2013-07-07 09:43:00,73.8,71.0,30.17,NE,45,0.0,0.0,91,0.00,,CLR,0.58,VWS V12.08,2013-07-07 13:43:00,
2013-07-07 09:48:00,74.1,71.0,30.17,NE,45,0.0,0.0,90,0.00,,CLR,0.58,VWS V12.08,2013-07-07 13:48:00,
2013-07-07 09:53:00,74.5,71.7,30.16,NNW,338,0.0,0.0,91,0.00,,CLR,0.58,VWS V12.08,2013-07-07 13:53:00,
2013-07-07 09:58:00,75.0,71.9,30.17,West,270,0.0,0.0,90,0.00,,CLR,0.58,VWS V12.08,2013-07-07 13:58:00,
2013-07-07 10:03:00,75.0,71.9,30.17,West,270,0.0,0.0,90,0.00,,CLR,0.58,VWS V12.08,2013-07-07 14:03:00,
2013-07-07 10:08:00,75.7,72.3,30.17,West,270,0.0,0.0,89,0.00,,CLR,0.58,VWS V12.08,2013-07-07 14:08:00,
2013-07-07 10:13:00,75.9,72.4,30.17,NNE,22,0.0,0.0,89,0.00,,CLR,0.58,VWS V12.08,2013-07-07 14:13:00,
2013-07-07 10:18:00,75.9,72.4,30.17,NE,45,0.0,0.0,89,0.00,,CLR,0.58,VWS V12.08,2013-07-07 14:18:00,
2013-07-07 10:23:00,76.3,72.1,30.17,NW,315,0.0,0.0,87,0.00,,CLR,0.58,VWS V12.08,2013-07-07 14:23:00,
2013-07-07 10:28:00,76.3,72.1,30.16,NW,315,0.0,0.0,87,0.00,,CLR,0.58,VWS V12.08,2013-07-07 14:28:00,
2013-07-07 10:33:00,76.5,72.3,30.16,NW,315,0.0,0.0,87,0.00,,CLR,0.58,VWS V12.08,2013-07-07 14:33:00,
2013-07-07 10:38:00,76.6,72.5,30.16,NW,315,0.0,0.0,87,0.00,,CLR,0.58,VWS V12.08,2013-07-07 14:38:00,
2013-07-07 10:43:00,76.3,72.1,30.16,NE,45,0.0,0.0,87,0.00,,CLR,0.58,VWS V12.08,2013-07-07 14:43:00,
2013-07-07 10:48:00,76.3,72.1,30.16,NE,45,0.0,0.0,87,0.00,,CLR,0.58,VWS V12.08,2013-07-07 14:48:00,
2013-07-07 10:53:00,76.3,71.8,30.16,NE,45,0.0,0.0,86,0.00,,CLR,0.58,VWS V12.08,2013-07-07 14:53:00,
2013-07-07 10:58:00,76.3,71.8,30.16,NE,45,0.0,0.0,86,0.00,,CLR,0.58,VWS V12.08,2013-07-07 14:58:00,
2013-07-07 11:03:00,76.3,71.8,30.16,WNW,292,0.0,0.0,86,0.00,,CLR,0.58,VWS V12.08,2013-07-07 15:03:00,
2013-07-07 11:08:00,76.5,72.0,30.16,WNW,292,0.0,0.0,86,0.00,,CLR,0.58,VWS V12.08,2013-07-07 15:08:00,
2013-07-07 11:13:00,76.5,72.0,30.16,NW,315,0.0,0.0,86,0.00,,CLR,0.58,VWS V12.08,2013-07-07 15:13:00,
2013-07-07 11:18:00,76.5,70.9,30.16,NNE,22,0.0,0.0,83,0.00,,CLR,0.58,VWS V12.08,2013-07-07 15:18:00,
2013-07-07 11:23:00,76.6,71.1,30.16,NNE,22,0.0,0.0,83,0.00,,CLR,0.58,VWS V12.08,2013-07-07 15:23:00,
2013-07-07 11:28:00,76.6,71.1,30.17,NNE,22,0.0,0.0,83,0.00,,CLR,0.58,VWS V12.08,2013-07-07 15:28:00,
2013-07-07 11:33:00,76.8,70.6,30.16,NE,45,0.0,0.0,81,0.00,,CLR,0.58,VWS V12.08,2013-07-07 15:33:00,
2013-07-07 11:38:00,76.8,70.2,30.16,East,90,0.0,0.0,80,0.00,,CLR,0.58,VWS V12.08,2013-07-07 15:38:00,
2013-07-07 11:43:00,77.2,70.5,30.16,North,0,0.0,0.0,80,0.00,,CLR,0.58,VWS V12.08,2013-07-07 15:43:00,
2013-07-07 11:48:00,77.4,70.3,30.16,NNE,22,0.0,0.0,79,0.00,,CLR,0.58,VWS V12.08,2013-07-07 15:48:00,
2013-07-07 11:53:00,77.5,70.1,30.16,NNW,338,0.0,0.0,78,0.00,,CLR,0.58,VWS V12.08,2013-07-07 15:53:00,
2013-07-07 11:58:00,77.9,70.5,30.16,North,0,0.0,0.0,78,0.00,,CLR,0.58,VWS V12.08,2013-07-07 15:58:00,
2013-07-07 12:03:00,78.1,70.7,30.16,North,0,0.0,0.0,78,0.00,,CLR,0.58,VWS V12.08,2013-07-07 16:03:00,
2013-07-07 12:08:00,78.3,70.5,30.16,West,270,0.0,0.0,77,0.00,,CLR,0.58,VWS V12.08,2013-07-07 16:08:00,
2013-07-07 12:13:00,78.6,70.0,30.16,NNW,338,0.0,0.0,75,0.00,,CLR,0.58,VWS V12.08,2013-07-07 16:13:00,
2013-07-07 12:18:00,78.8,70.6,30.16,SSE,158,0.0,0.0,76,0.00,,CLR,0.58,VWS V12.08,2013-07-07 16:18:00,
2013-07-07 12:23:00,79.2,70.2,30.16,ENE,68,0.0,0.0,74,0.00,,CLR,0.58,VWS V12.08,2013-07-07 16:23:00,
2013-07-07 12:28:00,79.2,70.2,30.15,NNW,338,0.0,0.0,74,0.00,,CLR,0.58,VWS V12.08,2013-07-07 16:28:00,
2013-07-07 12:33:00,79.2,70.6,30.16,NNW,338,0.0,0.0,75,0.00,,CLR,0.58,VWS V12.08,2013-07-07 16:33:00,
2013-07-07 12:38:00,79.2,70.6,30.16,East,90,0.0,0.0,75,0.00,,CLR,0.58,VWS V12.08,2013-07-07 16:38:00,
2013-07-07 12:43:00,79.2,69.8,30.15,ESE,112,0.0,0.0,73,0.00,,CLR,0.58,VWS V12.08,2013-07-07 16:43:00,
2013-07-07 12:48:00,79.3,69.9,30.15,NE,45,0.0,0.0,73,0.00,,CLR,0.58,VWS V12.08,2013-07-07 16:48:00,
2013-07-07 12:53:00,79.3,69.9,30.15,NE,45,0.0,0.0,73,0.00,,CLR,0.58,VWS V12.08,2013-07-07 16:53:00,
2013-07-07 12:58:00,80.2,70.8,30.15,NE,45,0.0,0.0,73,0.00,,CLR,0.58,VWS V12.08,2013-07-07 16:58:00,
2013-07-07 13:03:00,80.4,71.4,30.15,NW,315,0.0,0.0,74,0.00,,CLR,0.58,VWS V12.08,2013-07-07 17:03:00,
2013-07-07 13:08:00,80.8,72.5,30.15,NW,315,0.0,0.0,76,0.00,,CLR,0.58,VWS V12.08,2013-07-07 17:08:00,
2013-07-07 13:13:00,81.3,72.2,30.14,ENE,68,0.0,0.0,74,0.00,,CLR,0.58,VWS V12.08,2013-07-07 17:13:00,
2013-07-07 13:18:00,81.7,73.4,30.14,ESE,112,0.0,0.0,76,0.00,,CLR,0.58,VWS V12.08,2013-07-07 17:18:00,
2013-07-07 13:23:00,81.5,73.2,30.14,ENE,68,0.0,0.0,76,0.00,,CLR,0.58,VWS V12.08,2013-07-07 17:23:00,
2013-07-07 13:28:00,82.0,73.7,30.14,East,90,0.0,0.0,76,0.00,,CLR,0.58,VWS V12.08,2013-07-07 17:28:00,
2013-07-07 13:33:00,82.2,73.9,30.14,SE,135,0.0,0.0,76,0.00,,CLR,0.58,VWS V12.08,2013-07-07 17:33:00,
2013-07-07 13:38:00,82.8,72.4,30.14,NW,315,0.0,0.0,71,0.00,,CLR,0.58,VWS V12.08,2013-07-07 17:38:00,
2013-07-07 13:43:00,83.5,73.1,30.14,ENE,68,0.0,0.0,71,0.00,,CLR,0.58,VWS V12.08,2013-07-07 17:43:00,
2013-07-07 13:48:00,84.0,73.2,30.14,East,90,0.0,0.0,70,0.00,,CLR,0.58,VWS V12.08,2013-07-07 17:48:00,
2013-07-07 13:53:00,84.4,72.7,30.14,West,270,0.0,0.0,68,0.00,,CLR,0.58,VWS V12.08,2013-07-07 17:53:00,
2013-07-07 13:58:00,84.6,74.1,30.14,ENE,68,0.0,0.0,71,0.00,,CLR,0.58,VWS V12.08,2013-07-07 17:58:00,
2013-07-07 14:03:00,84.4,72.2,30.13,ESE,112,0.0,0.0,67,0.00,,CLR,0.58,VWS V12.08,2013-07-07 18:03:00,
2013-07-07 14:08:00,84.4,73.1,30.14,East,90,0.0,0.0,69,0.00,,CLR,0.58,VWS V12.08,2013-07-07 18:08:00,
2013-07-07 14:13:00,84.6,72.0,30.13,East,90,0.0,0.0,66,0.00,,CLR,0.58,VWS V12.08,2013-07-07 18:13:00,
2013-07-07 14:18:00,84.6,72.8,30.13,ESE,112,0.0,0.0,68,0.00,,CLR,0.58,VWS V12.08,2013-07-07 18:18:00,
2013-07-07 14:23:00,84.7,73.9,30.13,East,90,0.0,0.0,70,0.00,,CLR,0.58,VWS V12.08,2013-07-07 18:23:00,
2013-07-07 14:28:00,84.7,72.1,30.12,NE,45,0.0,0.0,66,0.00,,CLR,0.58,VWS V12.08,2013-07-07 18:28:00,
2013-07-07 14:33:00,84.7,72.1,30.12,NW,315,0.0,0.0,66,0.00,,CLR,0.58,VWS V12.08,2013-07-07 18:33:00,
2013-07-07 14:38:00,85.1,73.4,30.11,East,90,0.0,0.0,68,0.00,,CLR,0.58,VWS V12.08,2013-07-07 18:38:00,
2013-07-07 14:43:00,85.3,72.6,30.12,NW,315,0.0,0.0,66,0.00,,CLR,0.58,VWS V12.08,2013-07-07 18:43:00,
2013-07-07 14:48:00,85.1,73.8,30.12,East,90,0.0,0.0,69,0.00,,CLR,0.58,VWS V12.08,2013-07-07 18:48:00,
2013-07-07 14:53:00,84.9,74.5,30.12,ENE,68,0.0,0.0,71,0.00,,CLR,0.58,VWS V12.08,2013-07-07 18:53:00,
2013-07-07 14:58:00,84.9,74.1,30.12,SW,225,0.0,0.0,70,0.00,,CLR,0.58,VWS V12.08,2013-07-07 18:58:00,
2013-07-07 15:03:00,85.1,74.2,30.11,SW,225,0.0,0.0,70,0.00,,CLR,0.58,VWS V12.08,2013-07-07 19:03:00,
2013-07-07 15:08:00,85.1,73.8,30.11,ENE,68,0.0,0.0,69,0.00,,CLR,0.58,VWS V12.08,2013-07-07 19:08:00,
2013-07-07 15:13:00,85.3,74.0,30.11,ENE,68,0.0,0.0,69,0.00,,CLR,0.58,VWS V12.08,2013-07-07 19:13:00,
2013-07-07 15:18:00,84.7,73.4,30.11,ESE,112,0.7,0.7,69,0.00,,CLR,0.58,VWS V12.08,2013-07-07 19:18:00,
2013-07-07 15:23:00,84.4,73.1,30.11,ESE,112,0.9,0.9,69,0.00,,CLR,0.58,VWS V12.08,2013-07-07 19:23:00,
2013-07-07 15:28:00,83.7,73.3,30.11,ESE,112,0.0,0.9,71,0.00,,CLR,0.58,VWS V12.08,2013-07-07 19:28:00,
2013-07-07 15:33:00,83.5,73.1,30.11,SE,135,0.0,0.9,71,0.00,,CLR,0.58,VWS V12.08,2013-07-07 19:33:00,
2013-07-07 15:39:00,83.5,73.5,30.11,ESE,112,0.0,0.9,72,0.00,,CLR,0.58,VWS V12.08,2013-07-07 19:39:00,
2013-07-07 15:44:00,83.5,73.1,30.10,ESE,112,0.0,0.0,71,0.00,,CLR,0.58,VWS V12.08,2013-07-07 19:44:00,
2013-07-07 15:49:00,83.5,73.1,30.11,ESE,112,0.0,0.0,71,0.00,,CLR,0.58,VWS V12.08,2013-07-07 19:49:00,
2013-07-07 15:54:00,83.5,73.1,30.10,ESE,112,0.0,0.0,71,0.00,,CLR,0.58,VWS V12.08,2013-07-07 19:54:00,
2013-07-07 15:59:00,83.5,73.1,30.10,ESE,112,0.0,0.0,71,0.00,,CLR,0.58,VWS V12.08,2013-07-07 19:59:00,
2013-07-07 16:04:00,83.1,73.2,30.10,ENE,68,0.0,0.0,72,0.00,,CLR,0.58,VWS V12.08,2013-07-07 20:04:00,
2013-07-07 16:09:00,82.8,72.8,30.09,ENE,68,0.0,0.0,72,0.00,,CLR,0.58,VWS V12.08,2013-07-07 20:09:00,
2013-07-07 16:14:00,82.6,73.1,30.10,ESE,112,0.0,0.0,73,0.00,,CLR,0.58,VWS V12.08,2013-07-07 20:14:00,
2013-07-07 16:19:00,82.6,73.1,30.10,WSW,248,0.0,0.0,73,0.00,,CLR,0.58,VWS V12.08,2013-07-07 20:19:00,
2013-07-07 16:24:00,82.8,73.2,30.10,East,90,0.0,0.0,73,0.00,,CLR,0.58,VWS V12.08,2013-07-07 20:24:00,
2013-07-07 16:29:00,82.8,73.2,30.10,East,90,0.0,0.0,73,0.00,,CLR,0.58,VWS V12.08,2013-07-07 20:29:00,
2013-07-07 16:34:00,83.5,73.9,30.10,ENE,68,0.0,0.0,73,0.00,,CLR,0.58,VWS V12.08,2013-07-07 20:34:00,
2013-07-07 16:39:00,83.1,72.8,30.10,West,270,0.0,0.0,71,0.00,,CLR,0.58,VWS V12.08,2013-07-07 20:39:00,
2013-07-07 16:44:00,82.9,73.4,30.10,ESE,112,0.0,0.0,73,0.00,,CLR,0.58,VWS V12.08,2013-07-07 20:44:00,
2013-07-07 16:49:00,82.9,73.4,30.10,ENE,68,0.0,0.0,73,0.00,,CLR,0.58,VWS V12.08,2013-07-07 20:49:00,
2013-07-07 16:54:00,82.9,73.4,30.10,East,90,0.0,0.0,73,0.00,,CLR,0.58,VWS V12.08,2013-07-07 20:54:00,
2013-07-07 16:59:00,82.9,73.0,30.09,WSW,248,0.0,0.0,72,0.00,,CLR,0.58,VWS V12.08,2013-07-07 20:59:00,
2013-07-07 17:04:00,83.1,73.6,30.09,East,90,0.0,0.0,73,0.00,,CLR,0.58,VWS V12.08,2013-07-07 21:04:00,
2013-07-07 17:09:00,83.8,74.7,30.09,ESE,112,0.0,0.0,74,0.00,,CLR,0.58,VWS V12.08,2013-07-07 21:09:00,
2013-07-07 17:14:00,84.0,74.0,30.09,ENE,68,0.0,0.0,72,0.00,,CLR,0.58,VWS V12.08,2013-07-07 21:14:00,
2013-07-07 17:19:00,84.0,74.0,30.09,ESE,112,0.0,0.0,72,0.00,,CLR,0.58,VWS V12.08,2013-07-07 21:19:00,
2013-07-07 17:24:00,84.0,73.6,30.09,ENE,68,0.0,0.0,71,0.00,,CLR,0.58,VWS V12.08,2013-07-07 21:24:00,
2013-07-07 17:29:00,84.0,73.6,30.09,ENE,68,0.0,0.0,71,0.00,,CLR,0.58,VWS V12.08,2013-07-07 21:29:00,
2013-07-07 17:34:00,82.9,72.6,30.09,ENE,68,0.0,0.0,71,0.00,,CLR,0.58,VWS V12.08,2013-07-07 21:34:00,
2013-07-07 17:39:00,82.2,72.3,30.09,ESE,112,0.0,0.0,72,0.00,,CLR,0.58,VWS V12.08,2013-07-07 21:39:00,
2013-07-07 17:44:00,82.0,72.5,30.09,East,90,0.0,0.0,73,0.00,,CLR,0.58,VWS V12.08,2013-07-07 21:44:00,
2013-07-07 17:49:00,81.3,71.8,30.09,ENE,68,0.0,0.0,73,0.00,,CLR,0.58,VWS V12.08,2013-07-07 21:49:00,
2013-07-07 17:54:00,81.0,72.3,30.09,ENE,68,0.0,0.0,75,0.00,,CLR,0.58,VWS V12.08,2013-07-07 21:54:00,
2013-07-07 17:59:00,81.0,72.3,30.09,ENE,68,0.0,0.0,75,0.00,,CLR,0.58,VWS V12.08,2013-07-07 21:59:00,
2013-07-07 18:04:00,80.2,71.6,30.09,ENE,68,0.0,0.0,75,0.00,,CLR,0.58,VWS V12.08,2013-07-07 22:04:00,
2013-07-07 18:09:00,79.9,71.6,30.09,ENE,68,0.0,0.0,76,0.00,,CLR,0.58,VWS V12.08,2013-07-07 22:09:00,
2013-07-07 18:14:00,79.9,70.9,30.09,NW,315,0.0,0.0,74,0.00,,CLR,0.58,VWS V12.08,2013-07-07 22:14:00,
2013-07-07 18:19:00,79.7,71.1,30.09,NE,45,0.0,0.0,75,0.00,,CLR,0.58,VWS V12.08,2013-07-07 22:19:00,
2013-07-07 18:24:00,79.5,71.3,30.09,East,90,0.0,0.0,76,0.00,,CLR,0.58,VWS V12.08,2013-07-07 22:24:00,
2013-07-07 18:29:00,79.5,71.3,30.09,ENE,68,0.0,0.0,76,0.00,,CLR,0.58,VWS V12.08,2013-07-07 22:29:00,
2013-07-07 18:34:00,79.3,71.5,30.09,East,90,0.0,0.0,77,0.00,,CLR,0.58,VWS V12.08,2013-07-07 22:34:00,
2013-07-07 18:39:00,79.3,71.5,30.09,East,90,0.0,0.0,77,0.00,,CLR,0.58,VWS V12.08,2013-07-07 22:39:00,
2013-07-07 18:44:00,78.6,70.8,30.09,East,90,0.0,0.0,77,0.00,,CLR,0.58,VWS V12.08,2013-07-07 22:44:00,
2013-07-07 18:49:00,78.6,71.2,30.09,ENE,68,0.0,0.0,78,0.00,,CLR,0.58,VWS V12.08,2013-07-07 22:49:00,
2013-07-07 18:54:00,78.6,71.2,30.09,East,90,0.0,0.0,78,0.00,,CLR,0.58,VWS V12.08,2013-07-07 22:54:00,
2013-07-07 18:59:00,78.4,71.0,30.09,East,90,0.0,0.0,78,0.00,,CLR,0.58,VWS V12.08,2013-07-07 22:59:00,
2013-07-07 19:04:00,78.1,71.0,30.09,East,90,0.0,0.0,79,0.00,,CLR,0.58,VWS V12.08,2013-07-07 23:04:00,
2013-07-07 19:09:00,78.1,71.0,30.09,East,90,0.0,0.0,79,0.00,,CLR,0.58,VWS V12.08,2013-07-07 23:09:00,
2013-07-07 19:14:00,78.1,71.4,30.10,East,90,0.0,0.0,80,0.00,,CLR,0.58,VWS V12.08,2013-07-07 23:14:00,
2013-07-07 19:19:00,77.9,71.2,30.10,East,90,0.0,0.0,80,0.00,,CLR,0.58,VWS V12.08,2013-07-07 23:19:00,
2013-07-07 19:24:00,77.5,70.9,30.10,East,90,0.0,0.0,80,0.00,,CLR,0.58,VWS V12.08,2013-07-07 23:24:00,
2013-07-07 19:29:00,77.5,70.9,30.10,East,90,0.0,0.0,80,0.00,,CLR,0.58,VWS V12.08,2013-07-07 23:29:00,
2013-07-07 19:34:00,77.5,70.9,30.10,East,90,0.0,0.0,80,0.00,,CLR,0.58,VWS V12.08,2013-07-07 23:34:00,
2013-07-07 19:39:00,77.4,70.7,30.10,ENE,68,0.0,0.0,80,0.00,,CLR,0.58,VWS V12.08,2013-07-07 23:39:00,
2013-07-07 19:44:00,77.2,70.5,30.10,ENE,68,0.0,0.0,80,0.00,,CLR,0.58,VWS V12.08,2013-07-07 23:44:00,
2013-07-07 19:49:00,77.0,70.4,30.10,ENE,68,0.0,0.0,80,0.00,,CLR,0.58,VWS V12.08,2013-07-07 23:49:00,
2013-07-07 19:54:00,77.0,70.7,30.10,ENE,68,0.0,0.0,81,0.00,,CLR,0.58,VWS V12.08,2013-07-07 23:54:00,
2013-07-07 19:59:00,76.8,70.6,30.11,ENE,68,0.0,0.0,81,0.00,,CLR,0.58,VWS V12.08,2013-07-07 23:59:00,
2013-07-07 20:04:00,76.8,70.6,30.11,East,90,0.0,0.0,81,0.00,,CLR,0.58,VWS V12.08,2013-07-08 00:04:00,
2013-07-07 20:09:00,76.6,70.0,30.11,ENE,68,0.0,0.0,80,0.00,,CLR,0.58,VWS V12.08,2013-07-08 00:09:00,
2013-07-07 20:14:00,76.6,70.0,30.11,ENE,68,0.0,0.0,80,0.00,,CLR,0.58,VWS V12.08,2013-07-08 00:14:00,
2013-07-07 20:19:00,75.9,68.9,30.11,NNE,22,0.0,0.0,79,0.00,,CLR,0.58,VWS V12.08,2013-07-08 00:19:00,
2013-07-07 20:24:00,75.6,68.6,30.12,North,0,0.0,0.0,79,0.00,,CLR,0.58,VWS V12.08,2013-07-08 00:24:00,
2013-07-07 20:29:00,75.6,68.6,30.11,NNW,338,0.0,0.0,79,0.00,,CLR,0.58,VWS V12.08,2013-07-08 00:29:00,
2013-07-07 20:34:00,75.0,68.1,30.12,NNW,338,0.0,0.0,79,0.00,,CLR,0.58,VWS V12.08,2013-07-08 00:34:00,
2013-07-07 20:39:00,74.8,67.9,30.12,NNW,338,0.0,0.0,79,0.00,,CLR,0.58,VWS V12.08,2013-07-08 00:39:00,
2013-07-07 20:44:00,74.7,67.7,30.12,North,0,0.0,0.0,79,0.00,,CLR,0.58,VWS V12.08,2013-07-08 00:44:00,
2013-07-07 20:49:00,74.5,67.9,30.12,North,0,0.0,0.0,80,0.00,,CLR,0.58,VWS V12.08,2013-07-08 00:49:00,
2013-07-07 20:54:00,74.3,67.7,30.12,North,0,0.0,0.0,80,0.00,,CLR,0.58,VWS V12.08,2013-07-08 00:54:00,
2013-07-07 20:59:00,74.1,67.6,30.12,North,0,0.0,0.0,80,0.00,,CLR,0.58,VWS V12.08,2013-07-08 00:59:00,
2013-07-07 21:04:00,73.9,67.4,30.12,North,0,0.0,0.0,80,0.00,,CLR,0.28,VWS V12.08,2013-07-08 01:04:00,
2013-07-07 21:09:00,73.8,67.2,30.12,North,0,0.0,0.0,80,0.00,,CLR,0.28,VWS V12.08,2013-07-08 01:09:00,
2013-07-07 21:14:00,73.6,67.0,30.12,North,0,0.0,0.0,80,0.00,,CLR,0.28,VWS V12.08,2013-07-08 01:14:00,
2013-07-07 21:19:00,73.4,66.9,30.13,North,0,0.0,0.0,80,0.00,,CLR,0.28,VWS V12.08,2013-07-08 01:19:00,
2013-07-07 21:24:00,73.2,67.1,30.13,ENE,68,0.0,0.0,81,0.00,,CLR,0.28,VWS V12.08,2013-07-08 01:24:00,
2013-07-07 21:29:00,73.2,67.1,30.13,ENE,68,0.0,0.0,81,0.00,,CLR,0.28,VWS V12.08,2013-07-08 01:29:00,
2013-07-07 21:34:00,73.0,67.2,30.13,ENE,68,0.0,0.0,82,0.00,,CLR,0.28,VWS V12.08,2013-07-08 01:34:00,
2013-07-07 21:39:00,73.0,67.2,30.14,ENE,68,0.0,0.0,82,0.00,,CLR,0.28,VWS V12.08,2013-07-08 01:39:00,
2013-07-07 21:44:00,72.9,67.1,30.13,ENE,68,0.0,0.0,82,0.00,,CLR,0.28,VWS V12.08,2013-07-08 01:44:00,
2013-07-07 21:49:00,72.7,66.9,30.14,ENE,68,0.0,0.0,82,0.00,,CLR,0.28,VWS V12.08,2013-07-08 01:49:00,
2013-07-07 21:54:00,72.5,67.1,30.14,ENE,68,0.0,0.0,83,0.00,,CLR,0.28,VWS V12.08,2013-07-08 01:54:00,
2013-07-07 21:59:00,72.5,67.1,30.15,ENE,68,0.0,0.0,83,0.00,,CLR,0.28,VWS V12.08,2013-07-08 01:59:00,
2013-07-07 22:04:00,72.3,66.9,30.15,ENE,68,0.0,0.0,83,0.00,,CLR,0.26,VWS V12.08,2013-07-08 02:04:00,
2013-07-07 22:09:00,72.3,67.2,30.15,ENE,68,0.0,0.0,84,0.00,,CLR,0.26,VWS V12.08,2013-07-08 02:09:00,
2013-07-07 22:14:00,72.3,67.2,30.15,ENE,68,0.0,0.0,84,0.00,,CLR,0.26,VWS V12.08,2013-07-08 02:14:00,
2013-07-07 22:19:00,72.1,67.0,30.16,ENE,68,0.0,0.0,84,0.00,,CLR,0.26,VWS V12.08,2013-07-08 02:19:00,
2013-07-07 22:24:00,72.1,67.0,30.16,ENE,68,0.0,0.0,84,0.00,,CLR,0.26,VWS V12.08,2013-07-08 02:24:00,
2013-07-07 22:29:00,72.0,66.9,30.15,ENE,68,0.0,0.0,84,0.00,,CLR,0.26,VWS V12.08,2013-07-08 02:29:00,
2013-07-07 22:34:00,71.8,66.7,30.15,ENE,68,0.0,0.0,84,0.00,,CLR,0.26,VWS V12.08,2013-07-08 02:34:00,
2013-07-07 22:39:00,71.8,66.7,30.15,ENE,68,0.0,0.0,84,0.00,,CLR,0.26,VWS V12.08,2013-07-08 02:39:00,
2013-07-07 22:44:00,71.8,66.7,30.16,ENE,68,0.0,0.0,84,0.00,,CLR,0.26,VWS V12.08,2013-07-08 02:44:00,
2013-07-07 22:49:00,71.8,66.7,30.16,ENE,68,0.0,0.0,84,0.00,,CLR,0.26,VWS V12.08,2013-07-08 02:49:00,
2013-07-07 22:54:00,71.8,66.7,30.16,ENE,68,0.0,0.0,84,0.00,,CLR,0.26,VWS V12.08,2013-07-08 02:54:00,
2013-07-07 22:59:00,71.6,66.5,30.16,ENE,68,0.0,0.0,84,0.00,,CLR,0.26,VWS V12.08,2013-07-08 02:59:00,
2013-07-07 23:04:00,71.4,66.3,30.16,ENE,68,0.0,0.0,84,0.00,,CLR,0.11,VWS V12.08,2013-07-08 03:04:00,
2013-07-07 23:09:00,71.4,66.7,30.16,ENE,68,0.0,0.0,85,0.00,,CLR,0.11,VWS V12.08,2013-07-08 03:09:00,
2013-07-07 23:14:00,71.4,66.7,30.16,ENE,68,0.0,0.0,85,0.00,,CLR,0.11,VWS V12.08,2013-07-08 03:14:00,
2013-07-07 23:19:00,71.4,66.7,30.16,ENE,68,0.0,0.0,85,0.00,,CLR,0.11,VWS V12.08,2013-07-08 03:19:00,
2013-07-07 23:24:00,71.4,66.7,30.15,ENE,68,0.0,0.0,85,0.00,,CLR,0.11,VWS V12.08,2013-07-08 03:24:00,
2013-07-07 23:29:00,71.4,66.7,30.16,ENE,68,0.0,0.0,85,0.00,,CLR,0.11,VWS V12.08,2013-07-08 03:29:00,
2013-07-07 23:34:00,71.2,66.5,30.15,ENE,68,0.0,0.0,85,0.00,,CLR,0.11,VWS V12.08,2013-07-08 03:34:00,
2013-07-07 23:39:00,71.2,66.5,30.15,ENE,68,0.0,0.0,85,0.00,,CLR,0.11,VWS V12.08,2013-07-08 03:39:00,
2013-07-07 23:44:00,71.2,66.8,30.15,ENE,68,0.0,0.0,86,0.00,,CLR,0.11,VWS V12.08,2013-07-08 03:44:00,
2013-07-07 23:49:00,71.2,66.8,30.15,ENE,68,0.0,0.0,86,0.00,,CLR,0.11,VWS V12.08,2013-07-08 03:49:00,
2013-07-07 23:54:00,71.2,66.8,30.15,ENE,68,0.0,0.0,86,0.00,,CLR,0.11,VWS V12.08,2013-07-08 03:54:00,
2013-07-07 23:59:00,71.2,66.8,30.15,ENE,68,0.0,0.0,86,0.00,,CLR,0.11,VWS V12.08,2013-07-08 03:59:00,